Terminal Aerodrome Forecast
Issued by NWS

Home | Current Version | Previous Version | Text Only | Print | Product List | Glossary Off
Versions: 1 2 3 4 5 6 7 8 9 10 11 12 13 14 15 16 17 18 19

000
FTUS43 KMPX 172300 RRA
TAFRNH
TAF
KRNH 172339Z 1800/1824 33008KT P6SM BKN040
     FM180300 35009KT P6SM OVC025
     FM181500 36005KT P6SM SCT025
     FM182100 VRB03KT P6SM SKC=

USA.gov is the U.S. government's official web portal to all federal, state and local government web resources and services.